• Join FlightAware (Why Join?)
  • Login
  • US Flag 
05:39AM EDT


 

Airport Tracker/Info


-or-


 

Live Flight TrackerFlight Track Log ✈ CNS55 ✈ 05-May-2013 ✈ KHPN - KPSM

Flight Track Log - Related Links

Times and Time Zones

All times are in EDT time to prevent confusion due to time zone crossing. See the CNS55 flight status page for this flight to view local times or setup timezone preferences in your user account.

Time Position Orientation Groundspeed Altitude Reporting Facility
EDT Latitude Longitude Course Direction KTS MPH feet Rate Location/Type
03:35PM 41.0667 -73.6833 56° Northeast 111 128 1,600  Level New York TRACON
03:36PM 41.0833 -73.6500 56° Northeast 166 191 2,500 480 Climbing New York TRACON
03:37PM 41.1333 -73.5833 45° Northeast 208 239 2,600 900 Climbing New York TRACON
03:38PM 41.1667 -73.5333 48° Northeast 183 211 4,300 1,620 Climbing New York TRACON
03:39PM 41.2000 -73.4833 48° Northeast 182 209 5,900 1,680 Climbing New York TRACON
03:41PM 41.2381 -73.3905 56° Northeast  Level FlightAware Approximate
03:41PM 41.2667 -73.4000 56° Northeast 186 214 9,500  Level New York TRACON
03:42PM 41.3000 -73.3500 48° Northeast 193 222 11,200 1,740 Climbing New York TRACON
03:43PM 41.3500 -73.2833 45° Northeast 194 223 13,000 1,620 Climbing New York TRACON
03:44PM 41.3553 -73.2836 358° North 202 232 13,400 1,440 Climbing Boston Center
03:45PM 41.3953 -73.2258 47° Northeast 207 238 15,000 960 Climbing Boston Center
03:46PM 41.4331 -73.1767 44° Northeast 207 238 15,400 240 Climbing Boston Center
03:47PM 41.4836 -73.1078 46° Northeast 221 254 15,500  Climbing Boston Center
03:48PM 41.5256 -73.0472 47° Northeast 236 272 15,500  Level Boston Center
03:49PM 41.5800 -72.9700 47° Northeast 247 284 15,500  Level Boston Center
03:50PM 41.6261 -72.9094 44° Northeast 247 284 15,500  Level Boston Center
03:51PM 41.6786 -72.8347 47° Northeast 247 284 15,500  Level Boston Center
03:52PM 41.7247 -72.7711 46° Northeast 247 284 15,500  Level Boston Center
03:53PM 41.7769 -72.6961 47° Northeast 247 284 15,500  Level Boston Center
03:54PM 41.8186 -72.6406 45° Northeast 247 284 15,500  Level Boston Center
03:55PM 41.8772 -72.5572 47° Northeast 252 290 15,500  Level Boston Center
03:57PM 41.9753 -72.4178 47° Northeast 247 284 15,500  Level Boston Center
03:58PM 42.0356 -72.3339 46° Northeast 252 290 15,500  Level Boston Center
03:59PM 42.0814 -72.2694 46° Northeast 252 290 15,500 -60 Level Boston Center
04:00PM 42.1356 -72.1936 46° Northeast 252 290 15,400 -60 Descending Boston Center
04:01PM 42.1792 -72.1292 48° Northeast 252 290 15,400  Level Boston Center
04:02PM 42.2350 -72.0503 46° Northeast 252 290 15,400  Level Boston Center
04:03PM 42.2786 -71.9856 48° Northeast 252 290 15,400 60 Level Boston Center
04:04PM 42.3344 -71.9064 46° Northeast 252 290 15,600 -480 Climbing Boston Center
04:05PM 42.3842 -71.8386 45° Northeast 252 290 14,500 -1,560 Descending Boston Center
04:06PM 42.4339 -71.7678 46° Northeast 252 290 12,500 -2,220 Descending Boston Center
04:07PM 42.4856 -71.6911 48° Northeast 252 290 10,100 -1,860 Descending Boston Center
04:08PM 42.5331 -71.6231 47° Northeast 252 290 8,800 -1,020 Descending Boston Center
04:09PM 42.5803 -71.5547 47° Northeast 247 284 8,100 -600 Descending Boston Center
04:10PM 42.6236 -71.4919 47° Northeast 247 284 7,700 -480 Descending Boston Center
04:11PM 42.6750 -71.4150 48° Northeast 247 284 7,200 -540 Descending Boston Center
04:12PM 42.7203 -71.3522 46° Northeast 247 284 6,700 -540 Descending Boston Center
04:13PM 42.7697 -71.2778 48° Northeast 247 284 6,200 -540 Descending Boston Center
04:14PM 42.8128 -71.2175 46° Northeast 247 284 5,700 -540 Descending Boston Center
04:15PM 42.8619 -71.1428 48° Northeast 247 284 5,200 -540 Descending Boston Center
04:15PM 42.8833 -71.1167 42° Northeast 239 275 5,000 -780 Descending KA90
04:16PM 42.9167 -71.0500 56° Northeast 226 260 4,100 -720 Descending KA90
04:17PM 42.9667 -71.0000 36° Northeast 224 258 3,500 -780 Descending KA90
04:18PM 43.0167 -70.9333 44° Northeast 228 262 2,600 -900 Descending KA90
04:19PM 43.0500 -70.9000 36° Northeast 192 221 1,900 -660 Descending KA90
04:20PM 43.0833 -70.9000 360° North 161 185 1,500 -600 Descending KA90
04:21PM 43.1000 -70.8500 65° Northeast 136 157 800 -660 Descending KA90
04:26PM 43.0779 -70.8233 236° Southwest  Level Estimated
04:33PM 43.0779 -70.8233 236° Southwest  Level Estimated
04:34PM 43.0779 -70.8233 236° Southwest  Level Estimated
04:35PM 43.0779 -70.8233 236° Southwest  Level Estimated
04:36PM 43.0779 -70.8233 236° Southwest  Level Estimated
04:37PM 43.0779 -70.8233 236° Southwest  Level Estimated
04:38PM 43.0779 -70.8233 236° Southwest  Level Estimated